createdAt,value
2018-07-12T00:01:48.133Z,91.40
2018-07-12T00:04:15.792Z,91.50
2018-07-12T00:06:43.518Z,91.50
2018-07-12T00:09:11.172Z,92.30
2018-07-12T00:11:38.835Z,92.40
2018-07-12T00:14:06.499Z,92.20
2018-07-12T00:16:34.164Z,92.20
2018-07-12T00:19:01.820Z,92.60
2018-07-12T00:21:29.483Z,92.90
2018-07-12T00:23:57.130Z,93.10
2018-07-12T00:26:24.812Z,93.50
2018-07-12T00:28:52.823Z,93.60
2018-07-12T00:31:20.515Z,94.00
2018-07-12T00:33:48.297Z,94.40
2018-07-12T00:36:15.972Z,94.80
2018-07-12T00:38:43.632Z,95.10
2018-07-12T00:41:11.292Z,95.20
2018-07-12T00:43:38.936Z,95.30
2018-07-12T00:46:06.629Z,95.20
2018-07-12T00:51:02.228Z,95.30
2018-07-12T00:53:29.887Z,95.00
2018-07-12T00:55:57.584Z,94.90
2018-07-12T01:00:53.275Z,95.50
2018-07-12T01:03:20.943Z,95.30
2018-07-12T01:05:48.858Z,95.40
2018-07-12T01:08:16.503Z,95.60
2018-07-12T01:10:44.155Z,95.90
2018-07-12T01:13:11.816Z,96.10
2018-07-12T01:15:39.501Z,96.60
2018-07-12T01:20:35.092Z,96.70
2018-07-12T01:23:02.752Z,97.10
2018-07-12T01:25:31.476Z,97.60
2018-07-12T01:27:59.132Z,98.00
2018-07-12T01:30:26.789Z,98.10
2018-07-12T01:32:54.752Z,97.90
2018-07-12T01:35:22.500Z,98.00
2018-07-12T01:37:50.640Z,98.10
2018-07-12T01:40:18.299Z,97.90
2018-07-12T01:42:45.959Z,97.70
2018-07-12T01:45:13.691Z,97.40
2018-07-12T01:50:09.397Z,97.00
2018-07-12T01:52:37.051Z,97.30
2018-07-12T01:55:04.749Z,98.20
2018-07-12T01:57:32.408Z,98.70
2018-07-12T02:00:00.089Z,98.50
2018-07-12T02:02:27.772Z,98.10
2018-07-12T02:04:55.531Z,97.90
2018-07-12T02:07:23.196Z,97.90
2018-07-12T02:09:50.897Z,98.00
2018-07-12T02:12:18.553Z,98.50
2018-07-12T02:14:46.247Z,98.60
2018-07-12T02:17:13.904Z,98.70
2018-07-12T02:19:41.560Z,98.50
2018-07-12T02:22:09.230Z,98.30
2018-07-12T02:24:36.888Z,98.30
2018-07-12T02:27:04.534Z,98.80
2018-07-12T02:29:32.184Z,99.00
2018-07-12T02:31:59.849Z,98.90
2018-07-12T02:34:27.516Z,98.90
2018-07-12T02:36:55.200Z,98.70
2018-07-12T02:39:22.856Z,98.90
2018-07-12T02:41:50.874Z,99.90
2018-07-12T02:44:18.563Z,99.10
2018-07-12T02:46:46.328Z,99.00
2018-07-12T02:49:14.017Z,98.90
2018-07-12T02:51:41.728Z,99.80
2018-07-12T02:54:09.387Z,99.10
2018-07-12T02:56:37.122Z,99.80
2018-07-12T02:59:04.779Z,99.70
2018-07-12T03:01:32.444Z,99.90
2018-07-12T03:04:00.111Z,99.50
2018-07-12T03:06:27.873Z,99.90
2018-07-12T03:08:55.634Z,99.80
2018-07-12T03:11:23.297Z,99.70
2018-07-12T03:13:51.435Z,99.20
2018-07-12T03:16:19.136Z,99.20
2018-07-12T03:18:46.796Z,99.70
2018-07-12T03:21:14.467Z,99.80
2018-07-12T03:23:42.125Z,99.60
2018-07-12T03:26:09.921Z,99.90
2018-07-12T03:28:37.589Z,99.70
2018-07-12T03:31:05.240Z,99.90
2018-07-12T03:33:32.908Z,99.90
2018-07-12T03:36:00.669Z,99.90
2018-07-12T03:38:28.356Z,99.50
2018-07-12T03:40:56.093Z,99.80
2018-07-12T03:43:23.764Z,99.90
2018-07-12T03:45:51.884Z,99.90
2018-07-12T03:48:19.552Z,99.90
2018-07-12T03:50:47.212Z,99.90
2018-07-12T03:53:14.891Z,99.90
2018-07-12T03:55:42.755Z,99.90
2018-07-12T03:58:10.469Z,99.90
2018-07-12T04:00:38.141Z,99.90
2018-07-12T04:03:05.805Z,99.90
2018-07-12T04:05:33.492Z,99.90
2018-07-12T04:08:01.155Z,99.90
2018-07-12T04:10:28.812Z,99.90
2018-07-12T04:12:56.525Z,99.90
2018-07-12T04:15:24.257Z,99.90
2018-07-12T04:20:19.939Z,99.90
2018-07-12T04:22:47.632Z,99.90
2018-07-12T04:25:15.321Z,99.90
2018-07-12T04:30:10.905Z,99.90
2018-07-12T04:32:38.568Z,99.90
2018-07-12T04:35:06.252Z,99.90
2018-07-12T04:37:34.132Z,99.90
2018-07-12T04:40:01.829Z,99.90
2018-07-12T04:42:29.493Z,99.90
2018-07-12T04:44:57.325Z,99.90
2018-07-12T04:47:25.009Z,99.90
2018-07-12T04:49:52.736Z,99.90
2018-07-12T04:52:20.444Z,99.90
2018-07-12T04:54:48.185Z,99.90
2018-07-12T04:57:15.837Z,99.90
2018-07-12T05:02:11.468Z,99.90
2018-07-12T05:07:07.105Z,99.90
2018-07-12T05:12:02.769Z,99.90
2018-07-12T05:14:30.424Z,99.90
2018-07-12T05:16:58.328Z,99.90
2018-07-12T05:19:25.993Z,99.90
2018-07-12T05:21:54.131Z,99.90
2018-07-12T05:24:21.830Z,99.90
2018-07-12T05:26:49.596Z,99.90
2018-07-12T05:29:17.294Z,99.90
2018-07-12T05:31:45.007Z,99.90
2018-07-12T05:34:12.719Z,99.40
2018-07-12T05:39:20.714Z,98.60
2018-07-12T05:41:50.187Z,98.30
2018-07-12T05:44:19.424Z,97.70
2018-07-12T05:46:48.946Z,97.20
2018-07-12T05:49:18.276Z,96.70
2018-07-12T05:51:47.916Z,96.60
2018-07-12T05:54:18.348Z,96.70
2018-07-12T05:56:48.050Z,96.60
2018-07-12T05:59:17.868Z,95.20
2018-07-12T06:01:58.120Z,95.30
2018-07-12T06:04:27.348Z,94.80
2018-07-12T06:06:56.589Z,95.40
2018-07-12T06:09:25.847Z,95.30
2018-07-12T06:11:55.089Z,95.30
2018-07-12T06:14:24.314Z,94.60
2018-07-12T06:16:53.543Z,94.50
2018-07-12T06:19:22.816Z,94.00
2018-07-12T06:21:52.210Z,94.10
2018-07-12T06:24:21.821Z,93.00
2018-07-12T06:26:51.236Z,93.40
2018-07-12T06:29:20.667Z,93.50
2018-07-12T06:31:50.052Z,92.00
2018-07-12T06:34:19.371Z,92.80
2018-07-12T06:36:48.709Z,92.20
2018-07-12T06:39:17.940Z,92.30
2018-07-12T06:41:47.348Z,92.80
2018-07-12T06:44:16.624Z,92.30
2018-07-12T06:46:46.011Z,92.30
2018-07-12T06:49:15.233Z,92.10
2018-07-12T06:51:44.545Z,91.30
2018-07-12T06:54:13.892Z,91.20
2018-07-12T06:56:43.664Z,91.70
2018-07-12T06:59:13.004Z,91.10
2018-07-12T07:04:11.065Z,91.50
2018-07-12T07:06:40.352Z,91.80
2018-07-12T07:09:10.765Z,91.20
2018-07-12T07:11:40.577Z,91.20
2018-07-12T07:14:09.789Z,90.80
2018-07-12T07:16:39.859Z,90.60
2018-07-12T07:19:09.195Z,91.30
2018-07-12T07:21:38.937Z,91.50
2018-07-12T07:24:08.569Z,91.30
2018-07-12T07:29:07.347Z,91.90
2018-07-12T07:31:37.001Z,91.60
2018-07-12T07:34:06.668Z,92.20
2018-07-12T07:36:36.285Z,92.00
2018-07-12T07:39:07.566Z,92.10
2018-07-12T07:41:37.099Z,91.90
2018-07-12T07:44:06.608Z,91.80
2018-07-12T07:46:37.167Z,92.60
2018-07-12T07:49:06.786Z,92.20
2018-07-12T07:51:36.448Z,92.00
2018-07-12T07:54:06.381Z,91.60
2018-07-12T07:56:36.323Z,89.10
2018-07-12T07:59:06.209Z,90.20
2018-07-12T08:01:36.196Z,90.80
2018-07-12T08:04:05.648Z,91.20
2018-07-12T08:06:35.431Z,91.00
2018-07-12T08:09:06.181Z,90.10
2018-07-12T08:11:35.900Z,90.10
2018-07-12T08:16:34.383Z,90.40
2018-07-12T08:19:04.239Z,89.60
2018-07-12T08:21:34.172Z,86.80
2018-07-12T08:24:03.736Z,85.00
2018-07-12T08:26:33.319Z,87.60
2018-07-12T08:29:02.956Z,86.00
2018-07-12T08:31:32.736Z,82.20
2018-07-12T08:34:02.970Z,85.70
2018-07-12T08:36:32.716Z,86.00
2018-07-12T08:39:02.268Z,85.50
2018-07-12T08:41:31.882Z,85.30
2018-07-12T08:44:01.673Z,85.40
2018-07-12T08:46:31.309Z,83.90
2018-07-12T08:49:00.977Z,82.20
2018-07-12T08:51:30.953Z,81.40
2018-07-12T08:54:00.678Z,80.20
2018-07-12T08:56:30.676Z,81.20
2018-07-12T08:59:00.258Z,79.80
2018-07-12T09:01:29.904Z,80.20
2018-07-12T09:03:59.473Z,78.70
2018-07-12T09:06:30.607Z,77.80
2018-07-12T09:09:00.158Z,77.00
2018-07-12T09:11:29.936Z,78.10
2018-07-12T09:13:59.556Z,79.50
2018-07-12T09:16:29.626Z,78.10
2018-07-12T09:18:59.290Z,77.80
2018-07-12T09:21:28.877Z,76.50
2018-07-12T09:23:58.548Z,74.20
2018-07-12T09:26:28.234Z,75.70
2018-07-12T09:28:57.990Z,72.40
2018-07-12T09:31:27.656Z,74.70
2018-07-12T09:33:57.575Z,72.20
2018-07-12T09:36:27.265Z,74.00
2018-07-12T09:38:57.060Z,71.70
2018-07-12T09:41:26.488Z,72.20
2018-07-12T09:43:56.196Z,75.40
2018-07-12T09:46:25.877Z,72.50
2018-07-12T09:48:55.532Z,70.20
2018-07-12T09:51:25.103Z,67.80
2018-07-12T09:53:54.899Z,70.50
2018-07-12T09:56:34.975Z,71.60
2018-07-12T09:59:04.733Z,72.80
2018-07-12T10:01:39.526Z,67.50
2018-07-12T10:04:09.100Z,69.10
2018-07-12T10:06:44.051Z,67.80
2018-07-12T10:09:19.101Z,69.70
2018-07-12T10:14:28.645Z,65.90
2018-07-12T10:17:03.536Z,68.80
2018-07-12T10:19:33.308Z,64.30
2018-07-12T10:22:02.937Z,67.40
2018-07-12T10:24:32.698Z,66.10
2018-07-12T10:27:02.155Z,64.20
2018-07-12T10:29:31.753Z,62.40
2018-07-12T10:32:01.744Z,62.60
2018-07-12T10:34:31.988Z,63.80
2018-07-12T10:39:31.031Z,63.20
2018-07-12T10:42:01.080Z,64.30
2018-07-12T10:44:30.875Z,61.30
2018-07-12T10:47:01.028Z,62.90
2018-07-12T10:49:30.541Z,64.30
2018-07-12T10:52:00.126Z,64.70
2018-07-12T10:54:29.936Z,63.70
2018-07-12T10:56:59.361Z,65.70
2018-07-12T10:59:29.583Z,62.70
2018-07-12T11:01:59.525Z,63.30
2018-07-12T11:04:29.419Z,59.80
2018-07-12T11:06:59.404Z,62.30
2018-07-12T11:09:29.268Z,58.60
2018-07-12T11:11:58.925Z,59.80
2018-07-12T11:14:28.806Z,63.20
2018-07-12T11:16:58.543Z,61.40
2018-07-12T11:19:28.292Z,61.80
2018-07-12T11:21:58.488Z,63.00
2018-07-12T11:24:28.122Z,63.10
2018-07-12T11:26:57.796Z,60.80
2018-07-12T11:29:38.280Z,62.50
2018-07-12T11:32:07.897Z,59.70
2018-07-12T11:34:37.616Z,59.50
2018-07-12T11:37:07.385Z,59.40
2018-07-12T11:39:37.103Z,59.50
2018-07-12T11:42:06.892Z,56.80
2018-07-12T11:44:38.907Z,57.10
2018-07-12T11:47:08.681Z,56.10
2018-07-12T11:49:38.404Z,53.30
2018-07-12T11:52:08.319Z,54.20
2018-07-12T11:54:38.028Z,52.40
2018-07-12T11:57:07.735Z,51.50
2018-07-12T11:59:37.460Z,51.90
2018-07-12T12:02:07.205Z,51.20
2018-07-12T12:04:36.784Z,50.90
2018-07-12T12:07:06.785Z,50.70
2018-07-12T12:09:36.532Z,48.80
2018-07-12T12:12:06.436Z,48.70
2018-07-12T12:14:36.328Z,48.30
2018-07-12T12:17:06.140Z,48.10
2018-07-12T12:19:35.736Z,47.30
2018-07-12T12:22:05.405Z,47.70
2018-07-12T12:24:35.304Z,47.20
2018-07-12T12:29:34.376Z,47.30
2018-07-12T12:32:04.112Z,47.40
2018-07-12T12:34:34.132Z,47.70
2018-07-12T12:37:03.912Z,48.20
2018-07-12T12:39:33.736Z,48.60
2018-07-12T12:42:03.329Z,50.30
2018-07-12T12:44:32.849Z,49.50
2018-07-12T12:47:02.822Z,50.30
2018-07-12T12:49:32.669Z,49.00
2018-07-12T12:52:02.487Z,49.00
2018-07-12T12:54:32.199Z,49.80
2018-07-12T12:57:02.252Z,52.40
2018-07-12T12:59:32.248Z,51.50
2018-07-12T13:02:01.598Z,50.90
2018-07-12T13:04:30.980Z,51.10
2018-07-12T13:07:00.339Z,52.20
2018-07-12T13:09:29.645Z,52.90
2018-07-12T13:11:59.058Z,53.80
2018-07-12T13:14:28.454Z,51.50
2018-07-12T13:16:57.766Z,49.00
2018-07-12T13:19:27.129Z,48.80
2018-07-12T13:21:56.471Z,45.80
2018-07-12T13:24:25.797Z,46.70
2018-07-12T13:26:55.153Z,44.80
2018-07-12T13:29:24.508Z,44.10
2018-07-12T13:31:54.551Z,44.80
2018-07-12T13:34:23.876Z,43.30
2018-07-12T13:36:53.238Z,41.80
2018-07-12T13:39:22.588Z,42.30
2018-07-12T13:41:51.982Z,42.30
2018-07-12T13:44:24.363Z,44.20
2018-07-12T13:46:54.677Z,44.30
2018-07-12T13:49:24.085Z,45.60
2018-07-12T13:51:54.176Z,48.30
2018-07-12T13:54:23.658Z,48.90
2018-07-12T13:56:53.197Z,49.10
2018-07-12T13:59:22.522Z,49.60
2018-07-12T14:01:51.834Z,48.50
2018-07-12T14:04:21.331Z,49.50
2018-07-12T14:06:50.784Z,47.90
2018-07-12T14:09:20.108Z,47.60
2018-07-12T14:11:49.394Z,48.80
2018-07-12T14:14:18.761Z,51.30
2018-07-12T14:16:48.220Z,50.60
2018-07-12T14:19:17.575Z,51.20
2018-07-12T14:24:16.222Z,50.50
2018-07-12T14:26:45.591Z,50.80
2018-07-12T14:29:14.945Z,51.70
2018-07-12T14:31:44.243Z,51.20
2018-07-12T14:34:13.627Z,52.10
2018-07-12T14:36:42.952Z,53.30
2018-07-12T14:39:16.457Z,51.90
2018-07-12T14:41:46.046Z,52.60
2018-07-12T14:44:15.371Z,52.20
2018-07-12T14:46:44.938Z,52.70
2018-07-12T14:49:14.392Z,52.40
2018-07-12T14:51:43.721Z,53.80
2018-07-12T14:54:12.988Z,53.20
2018-07-12T14:59:11.121Z,52.60
2018-07-12T15:01:40.945Z,51.40
2018-07-12T15:04:10.388Z,53.20
2018-07-12T15:06:39.803Z,51.90
2018-07-12T15:09:09.769Z,52.30
2018-07-12T15:11:39.205Z,53.60
2018-07-12T15:14:08.915Z,51.00
2018-07-12T15:16:38.289Z,51.90
2018-07-12T15:19:07.637Z,50.00
2018-07-12T15:21:37.133Z,50.90
2018-07-12T15:24:06.475Z,50.30
2018-07-12T15:26:36.884Z,50.90
2018-07-12T15:29:06.579Z,49.00
2018-07-12T15:31:36.219Z,47.20
2018-07-12T15:34:05.552Z,46.50
2018-07-12T15:36:34.946Z,46.10
2018-07-12T15:39:05.680Z,44.10
2018-07-12T15:41:35.228Z,41.80
2018-07-12T15:44:04.617Z,39.70
2018-07-12T15:46:34.090Z,38.30
2018-07-12T15:49:03.549Z,40.30
2018-07-12T15:51:32.965Z,37.00
2018-07-12T15:54:02.409Z,36.90
2018-07-12T15:56:31.824Z,37.20
2018-07-12T15:59:01.165Z,37.40
2018-07-12T16:01:30.428Z,36.70
2018-07-12T16:03:59.744Z,36.60
2018-07-12T16:06:29.221Z,35.60
2018-07-12T16:08:58.491Z,36.40
2018-07-12T16:11:27.806Z,35.70
2018-07-12T16:13:57.156Z,35.80
2018-07-12T16:16:26.515Z,37.80
2018-07-12T16:18:55.793Z,36.20
2018-07-12T16:21:25.216Z,36.30
2018-07-12T16:23:54.568Z,35.90
2018-07-12T16:26:24.000Z,36.20
2018-07-12T16:28:53.423Z,36.70
2018-07-12T16:31:22.800Z,37.20
2018-07-12T16:33:52.536Z,38.90
2018-07-12T16:36:21.907Z,39.50
2018-07-12T16:38:51.264Z,40.60
2018-07-12T16:41:20.688Z,40.80
2018-07-12T16:43:50.196Z,41.60
2018-07-12T16:46:19.636Z,43.40
2018-07-12T16:48:49.309Z,44.60
2018-07-12T16:53:47.412Z,47.70
2018-07-12T16:58:45.657Z,49.30
2018-07-12T17:01:15.101Z,47.80
2018-07-12T17:03:44.584Z,48.40
2018-07-12T17:06:14.138Z,49.00
2018-07-12T17:08:43.445Z,48.30
2018-07-12T17:11:12.887Z,49.30
2018-07-12T17:13:42.282Z,53.00
2018-07-12T17:16:11.815Z,52.20
2018-07-12T17:18:41.259Z,54.70
2018-07-12T17:21:10.691Z,52.90
2018-07-12T17:23:42.562Z,56.30
2018-07-12T17:26:12.608Z,56.00
2018-07-12T17:28:41.992Z,52.60
2018-07-12T17:31:11.511Z,52.30
2018-07-12T17:34:02.591Z,53.10
2018-07-12T17:36:33.271Z,52.40
2018-07-12T17:39:03.373Z,53.80
2018-07-12T17:41:32.700Z,53.50
2018-07-12T17:44:02.026Z,53.40
2018-07-12T17:46:31.435Z,54.60
2018-07-12T17:49:00.857Z,56.00
2018-07-12T17:51:30.272Z,55.20
2018-07-12T17:53:59.594Z,56.00
2018-07-12T17:56:29.017Z,56.30
2018-07-12T17:58:58.396Z,56.60
2018-07-12T18:01:27.780Z,57.70
2018-07-12T18:03:57.095Z,57.00
2018-07-12T18:06:26.709Z,58.10
2018-07-12T18:08:56.487Z,60.60
2018-07-12T18:11:25.820Z,59.90
2018-07-12T18:13:55.148Z,61.10
2018-07-12T18:16:24.521Z,60.20
2018-07-12T18:18:54.089Z,62.30
2018-07-12T18:21:23.653Z,62.00
2018-07-12T18:23:53.395Z,65.40
2018-07-12T18:26:22.763Z,64.10
2018-07-12T18:28:52.076Z,64.30
2018-07-12T18:31:21.506Z,65.50
2018-07-12T18:33:50.975Z,67.10
2018-07-12T18:36:20.432Z,70.70
2018-07-12T18:38:49.856Z,70.80
2018-07-12T18:41:19.607Z,70.90
2018-07-12T18:43:49.116Z,71.00
2018-07-12T18:46:18.653Z,75.10
2018-07-12T18:48:47.980Z,74.20
2018-07-12T18:51:17.351Z,71.30
2018-07-12T18:53:46.680Z,69.70
2018-07-12T18:56:16.151Z,66.40
2018-07-12T18:58:45.459Z,72.50
2018-07-12T19:01:14.836Z,72.00
2018-07-12T19:03:44.208Z,74.40
2018-07-12T19:06:13.918Z,70.30
2018-07-12T19:08:44.338Z,68.50
2018-07-12T19:11:14.509Z,71.00
2018-07-12T19:13:43.849Z,68.60
2018-07-12T19:18:42.061Z,71.90
2018-07-12T19:21:11.465Z,71.80
2018-07-12T19:23:40.821Z,72.20
2018-07-12T19:26:10.250Z,75.00
2018-07-12T19:28:39.626Z,72.60
2018-07-12T19:31:09.055Z,72.50
2018-07-12T19:33:38.543Z,74.60
2018-07-12T19:36:08.038Z,75.40
2018-07-12T19:38:37.435Z,76.40
2018-07-12T19:41:06.813Z,77.30
2018-07-12T19:43:36.172Z,78.40
2018-07-12T19:48:34.424Z,77.60
2018-07-12T19:51:03.844Z,79.50
2018-07-12T19:53:33.799Z,80.80
2018-07-12T19:56:04.141Z,80.00
2018-07-12T19:58:34.530Z,81.80
2018-07-12T20:01:05.441Z,83.00
2018-07-12T20:03:36.191Z,84.00
2018-07-12T20:06:06.420Z,84.90
2018-07-12T20:08:37.240Z,84.10
2018-07-12T20:11:08.366Z,82.20
2018-07-12T20:13:38.549Z,81.50
2018-07-12T20:16:10.039Z,81.60
2018-07-12T20:18:40.672Z,82.20
2018-07-12T20:21:10.420Z,81.80
2018-07-12T20:23:41.731Z,81.60
2018-07-12T20:26:11.459Z,79.30
2018-07-12T20:28:41.158Z,81.80
2018-07-12T20:31:10.495Z,80.20
2018-07-12T20:33:39.842Z,81.10
2018-07-12T20:36:09.128Z,81.20
2018-07-12T20:38:38.560Z,81.60
2018-07-12T20:41:08.110Z,82.10
2018-07-12T20:43:37.356Z,83.50
2018-07-12T20:46:06.787Z,85.20
2018-07-12T20:48:36.113Z,84.70
2018-07-12T20:51:05.440Z,85.20
2018-07-12T20:53:34.896Z,87.40
2018-07-12T20:56:04.539Z,87.10
2018-07-12T20:58:33.808Z,86.50
2018-07-12T21:01:03.132Z,88.70
2018-07-12T21:03:32.351Z,86.70
2018-07-12T21:06:01.695Z,87.10
2018-07-12T21:08:31.183Z,85.90
2018-07-12T21:11:00.621Z,86.20
2018-07-12T21:13:29.865Z,86.70
2018-07-12T21:15:59.162Z,87.80
2018-07-12T21:18:28.528Z,89.50
2018-07-12T21:20:58.067Z,89.10
2018-07-12T21:23:27.294Z,89.40
2018-07-12T21:25:57.752Z,89.00
2018-07-12T21:28:27.017Z,89.60
2018-07-12T21:30:56.321Z,88.90
2018-07-12T21:33:25.615Z,90.00
2018-07-12T21:35:54.781Z,90.10
2018-07-12T21:38:24.048Z,90.40
2018-07-12T21:40:53.326Z,90.20
2018-07-12T21:43:22.551Z,90.30
2018-07-12T21:45:51.799Z,90.10
2018-07-12T21:48:21.055Z,90.50
2018-07-12T21:50:50.289Z,90.60
2018-07-12T21:53:19.543Z,90.10
2018-07-12T21:55:48.820Z,90.40
2018-07-12T21:58:18.120Z,90.40
2018-07-12T22:00:47.318Z,90.10
2018-07-12T22:03:16.518Z,90.70
2018-07-12T22:05:45.736Z,91.50
2018-07-12T22:08:16.244Z,92.20
2018-07-12T22:10:46.467Z,92.40
2018-07-12T22:13:16.471Z,91.90
2018-07-12T22:15:45.779Z,91.40
2018-07-12T22:18:14.998Z,90.90
2018-07-12T22:20:44.300Z,91.00
2018-07-12T22:23:13.511Z,89.60
2018-07-12T22:25:42.987Z,89.30
2018-07-12T22:28:12.180Z,90.80
2018-07-12T22:30:41.576Z,90.50
2018-07-12T22:33:10.813Z,90.60
2018-07-12T22:35:40.086Z,90.20
2018-07-12T22:38:09.304Z,90.20
2018-07-12T22:40:38.580Z,90.30
2018-07-12T22:43:07.776Z,90.80
2018-07-12T22:45:37.148Z,91.20
2018-07-12T22:48:06.460Z,91.80
2018-07-12T22:50:35.604Z,92.10
2018-07-12T22:53:04.868Z,91.90
2018-07-12T22:55:34.172Z,91.90
2018-07-12T22:58:03.481Z,92.00
2018-07-12T23:00:32.676Z,92.00
2018-07-12T23:03:01.944Z,92.60
2018-07-12T23:05:31.231Z,92.20
2018-07-12T23:10:29.128Z,92.80
2018-07-12T23:12:58.349Z,92.90
2018-07-12T23:15:27.638Z,92.90
2018-07-12T23:17:56.963Z,93.00
2018-07-12T23:20:26.193Z,92.70
2018-07-12T23:22:55.456Z,92.90
2018-07-12T23:25:24.783Z,92.80
2018-07-12T23:27:54.029Z,92.90
2018-07-12T23:30:23.293Z,93.00
2018-07-12T23:32:52.551Z,93.20
2018-07-12T23:35:21.855Z,93.50
2018-07-12T23:37:51.057Z,93.70
2018-07-12T23:40:20.659Z,93.90
2018-07-12T23:42:50.199Z,93.90
2018-07-12T23:45:19.792Z,93.90
2018-07-12T23:47:49.581Z,93.70
2018-07-12T23:50:19.337Z,94.00
2018-07-12T23:52:48.831Z,94.30
2018-07-12T23:55:18.406Z,94.50
2018-07-12T23:57:48.111Z,94.70
